Time;durP1;ratioP1;P1;durP2;ratioP2;P2;SDS_P1;SDS_P2;PMS_P1;PMS_P2;Temp;Humidity;BMP_temperature;BMP_pressure;BME280_temperature;BME280_humidity;BME280_pressure;Samples;Min_cycle;Max_cycle;Signal;HPM_P1;HPM_P2
2022/05/23 00:01:21;;;;;;;12.52;2.25;;;;;;;21.48;38.20;100293.53;5115726;28;20110;-77
2022/05/23 00:03:47;;;;;;;6.15;2.05;;;;;;;21.50;38.03;100296.69;5115820;28;20039;-77
2022/05/23 00:06:21;;;;;;;9.40;2.80;;;;;;;21.55;38.16;100289.94;5082475;28;20451;-77
2022/05/23 00:08:49;;;;;;;6.40;2.05;;;;;;;21.56;37.91;100289.53;5095577;28;20445;-77
2022/05/23 00:11:16;;;;;;;9.13;2.63;;;;;;;21.55;37.96;100289.94;5096637;28;20019;-78
2022/05/23 00:13:42;;;;;;;4.20;2.13;;;;;;;21.50;38.19;100293.13;5096581;28;20062;-77
2022/05/23 00:16:10;;;;;;;7.10;2.13;;;;;;;21.51;38.19;100289.13;5113914;28;20027;-77
2022/05/23 00:18:35;;;;;;;7.35;1.98;;;;;;;21.52;38.28;100283.19;5095743;28;20394;-77
2022/05/23 00:21:01;;;;;;;6.53;1.63;;;;;;;21.53;38.08;100276.41;5115057;28;20035;-77
2022/05/23 00:23:26;;;;;;;11.30;1.98;;;;;;;21.34;38.48;100274.06;5115367;28;20626;-77
2022/05/23 00:25:52;;;;;;;7.43;2.30;;;;;;;21.27;38.85;100276.81;5115726;28;20027;-77
2022/05/23 00:28:18;;;;;;;7.53;1.58;;;;;;;21.41;38.50;100274.06;5115307;28;20034;-77
2022/05/23 00:30:45;;;;;;;9.65;2.80;;;;;;;21.53;38.36;100262.53;5115638;28;20093;-77
2022/05/23 00:35:55;;;;;;;8.10;2.40;;;;;;;21.55;38.29;100267.72;5115256;28;20081;-77
2022/05/23 00:38:21;;;;;;;6.18;2.00;;;;;;;21.43;38.49;100262.53;5105185;28;20027;-77
2022/05/23 00:40:50;;;;;;;4.50;2.33;;;;;;;21.37;38.85;100273.25;5094908;28;20035;-77
2022/05/23 00:43:21;;;;;;;11.65;2.85;;;;;;;21.36;38.86;100268.91;5094934;28;20111;-77
2022/05/23 00:46:00;;;;;;;8.52;3.30;;;;;;;21.29;38.92;100266.91;5110043;28;20032;-77
2022/05/23 00:48:28;;;;;;;14.23;2.83;;;;;;;21.32;39.07;100273.69;5104674;28;20505;-77
2022/05/23 00:51:09;;;;;;;6.97;2.33;;;;;;;21.27;39.21;100272.06;5114774;28;20122;-77
2022/05/23 00:53:57;;;;;;;4.78;2.03;;;;;;;21.09;39.71;100256.56;5098778;28;20114;-77
2022/05/23 00:56:26;;;;;;;7.80;2.25;;;;;;;21.12;39.44;100264.09;5114688;28;20092;-78
2022/05/23 00:58:57;;;;;;;10.30;1.83;;;;;;;21.09;39.62;100267.69;5114762;28;20055;-77
2022/05/23 01:01:25;;;;;;;6.93;1.98;;;;;;;21.31;38.99;100272.06;5114673;28;20084;-77
2022/05/23 01:03:51;;;;;;;8.32;1.70;;;;;;;21.40;39.02;100264.16;5114618;28;20077;-78
2022/05/23 01:06:16;;;;;;;8.05;2.40;;;;;;;21.45;38.89;100252.59;5114261;28;20024;-77
2022/05/23 01:08:46;;;;;;;7.72;1.98;;;;;;;21.30;39.34;100256.59;5103045;28;20032;-77
2022/05/23 01:11:12;;;;;;;9.43;2.33;;;;;;;21.15;39.67;100260.53;5094379;28;20032;-77
2022/05/23 01:13:38;;;;;;;5.63;1.90;;;;;;;21.24;39.44;100253.41;5109738;28;20772;-77
2022/05/23 01:16:04;;;;;;;8.68;2.30;;;;;;;21.16;39.58;100262.94;5101831;28;20023;-77
2022/05/23 01:18:31;;;;;;;6.30;1.48;;;;;;;21.16;39.62;100257.38;5112636;28;20028;-77
2022/05/23 01:21:01;;;;;;;15.43;2.78;;;;;;;21.17;39.81;100255.38;5114520;28;20031;-77
2022/05/23 01:23:45;;;;;;;6.22;1.50;;;;;;;21.30;39.59;100251.81;5114374;28;20027;-77
2022/05/23 01:26:11;;;;;;;5.35;1.77;;;;;;;21.31;39.26;100256.22;5114224;28;20501;-77
2022/05/23 01:28:39;;;;;;;4.72;1.35;;;;;;;21.39;39.23;100245.88;5095853;28;20023;-77
2022/05/23 01:31:06;;;;;;;7.07;1.67;;;;;;;21.45;39.32;100237.91;5114034;28;20030;-77
2022/05/23 01:33:32;;;;;;;7.80;2.40;;;;;;;21.48;39.01;100235.16;5114050;28;20531;-77
2022/05/23 01:35:59;;;;;;;10.65;2.00;;;;;;;21.36;39.31;100231.97;5100554;28;20182;-77
2022/05/23 01:38:26;;;;;;;5.68;1.60;;;;;;;21.28;39.66;100234.75;5093955;28;20440;-77
2022/05/23 01:40:54;;;;;;;3.13;1.40;;;;;;;21.01;40.41;100244.66;5093715;28;20032;-77
2022/05/23 01:43:19;;;;;;;16.27;1.90;;;;;;;20.95;40.54;100238.69;5101695;28;20024;-77
2022/05/23 01:45:45;;;;;;;6.25;1.80;;;;;;;20.75;41.26;100240.25;5100319;28;20073;-77
2022/05/23 01:48:10;;;;;;;12.90;2.05;;;;;;;20.83;41.14;100239.06;5097782;27;20035;-77
2022/05/23 01:50:36;;;;;;;7.22;1.80;;;;;;;20.86;41.47;100249.41;5092233;28;20597;-77
2022/05/23 01:53:02;;;;;;;6.82;1.88;;;;;;;20.81;41.63;100237.91;5107890;28;20020;-77
2022/05/23 01:55:28;;;;;;;6.90;1.77;;;;;;;21.17;40.66;100233.94;5093528;28;20032;-77
2022/05/23 01:57:54;;;;;;;5.55;1.52;;;;;;;21.04;41.13;100241.09;5093472;28;20020;-77
2022/05/23 02:03:04;;;;;;;13.02;2.30;;;;;;;21.13;41.07;100233.16;5094601;28;20429;-77
2022/05/23 02:05:30;;;;;;;5.93;2.00;;;;;;;21.10;41.44;100228.41;5105659;28;20027;-77
2022/05/23 02:07:56;;;;;;;7.47;2.05;;;;;;;21.21;41.04;100231.94;5093816;28;20372;-77
2022/05/23 02:10:22;;;;;;;4.07;1.65;;;;;;;21.13;41.18;100237.91;5105570;28;20103;-77
2022/05/23 02:12:48;;;;;;;6.93;1.73;;;;;;;21.10;41.21;100252.59;5097111;28;20020;-77
2022/05/23 02:15:14;;;;;;;5.80;1.75;;;;;;;21.08;41.18;100244.66;5103197;28;20038;-77
2022/05/23 02:17:40;;;;;;;11.45;1.83;;;;;;;21.14;40.96;100237.50;5098445;28;20378;-77
2022/05/23 02:20:07;;;;;;;8.88;1.83;;;;;;;21.15;41.17;100239.09;5093048;28;20020;-77
2022/05/23 02:22:34;;;;;;;3.90;1.63;;;;;;;21.07;41.29;100240.28;5093066;28;20035;-77
2022/05/23 02:25:00;;;;;;;5.10;1.60;;;;;;;21.01;41.56;100239.91;5093070;28;20031;-77
2022/05/23 02:27:25;;;;;;;8.18;1.60;;;;;;;21.07;41.36;100231.94;5092959;28;20038;-77
2022/05/23 02:29:51;;;;;;;4.30;1.73;;;;;;;21.00;41.53;100243.06;5092958;28;20028;-77
2022/05/23 02:32:16;;;;;;;9.70;2.35;;;;;;;20.79;42.06;100235.50;5092937;28;20089;-77
2022/05/23 02:34:42;;;;;;;5.10;1.50;;;;;;;20.84;41.88;100237.09;5092848;28;20078;-78
2022/05/23 02:37:09;;;;;;;5.13;1.85;;;;;;;20.65;42.20;100243.81;5092879;28;20493;-77
2022/05/23 02:39:35;;;;;;;5.47;1.58;;;;;;;20.63;42.29;100241.44;5092726;28;20505;-77
2022/05/23 02:42:01;;;;;;;9.15;2.33;;;;;;;20.77;42.04;100237.88;5092715;28;20089;-77
2022/05/23 02:44:26;;;;;;;9.27;1.80;;;;;;;20.76;41.96;100239.06;5094398;28;20016;-77
2022/05/23 02:46:53;;;;;;;5.13;1.42;;;;;;;20.60;42.40;100230.31;5107168;28;20046;-77
2022/05/23 02:49:18;;;;;;;5.50;1.85;;;;;;;20.72;42.23;100241.06;5109316;28;20039;-77
2022/05/23 02:51:44;;;;;;;4.35;1.60;;;;;;;20.88;41.82;100235.91;5112906;28;20031;-77
2022/05/23 02:54:09;;;;;;;6.03;1.75;;;;;;;21.09;41.29;100234.34;5104386;28;20066;-77
2022/05/23 02:56:36;;;;;;;6.28;2.10;;;;;;;21.17;41.17;100235.94;5103793;28;20032;-77
2022/05/23 02:59:02;;;;;;;8.30;2.10;;;;;;;21.46;40.57;100231.16;5079379;28;20123;-77
2022/05/23 03:01:28;;;;;;;7.63;1.98;;;;;;;21.55;40.66;100228.78;5092667;28;20375;-77
2022/05/23 03:03:54;;;;;;;4.65;1.50;;;;;;;21.63;40.48;100235.13;5092546;28;20023;-77
2022/05/23 03:06:20;;;;;;;7.80;1.90;;;;;;;21.64;40.60;100239.50;5081216;28;20040;-77
2022/05/23 03:08:45;;;;;;;5.07;1.58;;;;;;;21.72;40.50;100230.72;5112530;28;20063;-77
2022/05/23 03:11:11;;;;;;;6.78;1.45;;;;;;;21.79;40.32;100227.94;5111388;28;20036;-77
2022/05/23 03:13:37;;;;;;;6.70;2.05;;;;;;;21.83;40.31;100225.13;5077923;28;20024;-77
2022/05/23 03:16:11;;;;;;;5.90;1.55;;;;;;;21.80;40.74;100223.16;5074312;28;20467;-77
2022/05/23 03:18:38;;;;;;;6.32;1.50;;;;;;;21.96;40.40;100219.94;5107817;28;20067;-77
2022/05/23 03:21:06;;;;;;;8.23;1.80;;;;;;;21.79;40.65;100229.94;5112619;28;20035;-77
2022/05/23 03:29:05;;;;;;;5.95;1.55;;;;;;;21.81;40.91;100221.97;5092818;28;20076;-77
2022/05/23 03:31:31;;;;;;;4.80;1.42;;;;;;;21.75;41.01;100220.78;5096411;28;20496;-77
2022/05/23 03:33:57;;;;;;;3.08;1.35;;;;;;;21.60;41.54;100225.59;5091076;28;20061;-77
2022/05/23 03:36:23;;;;;;;6.18;1.90;;;;;;;21.67;41.62;100230.34;5098463;28;20015;-77
2022/05/23 03:38:48;;;;;;;3.78;1.45;;;;;;;21.77;41.25;100223.97;5097981;28;20111;-77
2022/05/23 03:41:15;;;;;;;4.45;1.30;;;;;;;21.66;41.67;100228.75;5116470;28;20495;-77
2022/05/23 03:43:40;;;;;;;6.55;1.50;;;;;;;21.76;41.60;100234.28;5116176;28;20054;-77
2022/05/23 03:46:12;;;;;;;4.53;1.40;;;;;;;21.77;41.36;100224.78;5111286;28;20356;-77
2022/05/23 03:48:39;;;;;;;4.95;1.55;;;;;;;21.86;41.23;100218.78;5105678;28;20035;-77
2022/05/23 03:51:07;;;;;;;6.07;1.67;;;;;;;21.88;41.13;100216.38;5101592;28;20044;-77
2022/05/23 03:53:33;;;;;;;11.25;2.90;;;;;;;21.91;41.31;100206.44;5107661;28;20065;-77
2022/05/23 03:55:59;;;;;;;8.32;1.60;;;;;;;21.95;41.21;100210.81;5115938;28;20037;-77
2022/05/23 03:58:26;;;;;;;2.92;1.30;;;;;;;21.87;41.44;100212.81;5116062;28;20516;-77
2022/05/23 04:00:52;;;;;;;4.22;1.35;;;;;;;21.85;41.38;100208.84;5114147;28;20424;-77
2022/05/23 04:03:19;;;;;;;6.72;1.50;;;;;;;21.77;41.57;100207.28;5115923;28;20043;-78
2022/05/23 04:05:47;;;;;;;6.07;1.52;;;;;;;21.92;41.18;100205.25;5116062;28;20112;-77
2022/05/23 04:08:12;;;;;;;5.25;1.58;;;;;;;21.80;41.50;100200.91;5103971;28;20077;-78
2022/05/23 04:10:40;;;;;;;5.43;1.70;;;;;;;21.92;41.48;100203.28;5095622;28;20107;-77
2022/05/23 04:13:07;;;;;;;7.18;1.80;;;;;;;21.81;41.41;100203.28;5108548;28;20038;-78
2022/05/23 04:15:33;;;;;;;4.60;1.35;;;;;;;21.72;41.69;100204.91;5115939;28;20036;-77
2022/05/23 04:17:59;;;;;;;7.82;1.83;;;;;;;21.60;42.16;100198.56;5115546;28;20036;-78
2022/05/23 04:20:26;;;;;;;11.38;2.33;;;;;;;21.57;42.08;100199.38;5115207;28;20515;-77
2022/05/23 04:22:52;;;;;;;2.65;1.20;;;;;;;21.45;42.42;100196.22;5107773;28;20098;-76
2022/05/23 04:25:18;;;;;;;3.67;1.60;;;;;;;21.57;42.19;100193.03;5096357;28;20107;-77
2022/05/23 04:27:43;;;;;;;3.80;1.30;;;;;;;21.69;41.94;100189.84;5095296;28;20028;-77
2022/05/23 04:30:09;;;;;;;9.77;1.90;;;;;;;21.52;42.27;100188.66;5095234;28;20506;-77
2022/05/23 04:35:22;;;;;;;6.28;1.38;;;;;;;21.41;42.54;100198.25;5095506;28;20035;-77
2022/05/23 04:37:49;;;;;;;3.83;1.27;;;;;;;21.27;42.81;100199.00;5095045;28;20465;-78
2022/05/23 04:40:19;;;;;;;3.60;1.38;;;;;;;21.24;42.97;100203.38;5094797;28;20036;-78
2022/05/23 04:42:44;;;;;;;5.25;1.20;;;;;;;21.27;42.89;100207.34;5094227;28;20031;-77
2022/05/23 04:45:11;;;;;;;6.82;1.73;;;;;;;21.30;43.02;100190.69;5094955;28;20368;-77
2022/05/23 04:50:22;;;;;;;3.75;1.40;;;;;;;21.02;43.65;100202.59;5108408;28;20042;-77
2022/05/23 04:52:48;;;;;;;4.63;1.50;;;;;;;21.30;42.98;100192.69;5102242;28;20024;-77
2022/05/23 04:55:15;;;;;;;5.22;2.08;;;;;;;21.11;43.47;100202.19;5114817;28;20032;-77
2022/05/23 04:57:41;;;;;;;11.05;2.22;;;;;;;21.29;43.04;100211.34;5106085;28;20023;-77
2022/05/23 05:00:10;;;;;;;11.88;3.05;;;;;;;21.31;43.01;100205.38;5114267;28;20099;-77
2022/05/23 05:02:37;;;;;;;6.57;1.83;;;;;;;21.51;42.68;100200.97;5114009;28;20028;-77
2022/05/23 05:05:03;;;;;;;6.68;2.08;;;;;;;21.58;42.28;100200.19;5114995;28;20026;-77
2022/05/23 05:07:29;;;;;;;12.85;2.47;;;;;;;21.63;42.36;100197.00;5109043;28;20616;-77
2022/05/23 05:09:54;;;;;;;10.40;2.95;;;;;;;21.64;42.20;100204.16;5094573;28;20050;-77
2022/05/23 05:12:21;;;;;;;4.80;1.70;;;;;;;21.88;41.56;100197.72;5082370;28;20078;-77
2022/05/23 05:14:46;;;;;;;6.40;2.00;;;;;;;21.86;41.67;100194.53;5114831;28;20537;-77
2022/05/23 05:17:12;;;;;;;5.00;1.98;;;;;;;21.80;41.77;100198.13;5114399;28;20112;-76
2022/05/23 05:19:38;;;;;;;13.50;2.40;;;;;;;21.78;41.71;100203.31;5114397;28;20019;-76
2022/05/23 05:22:03;;;;;;;4.43;1.92;;;;;;;21.77;41.45;100201.72;5089313;28;20031;-75
2022/05/23 05:24:32;;;;;;;10.70;2.92;;;;;;;21.71;41.78;100208.91;5111131;28;20036;-76
2022/05/23 05:26:59;;;;;;;8.60;2.17;;;;;;;21.82;41.34;100209.66;5112908;28;20084;-76
2022/05/23 05:29:25;;;;;;;5.32;2.22;;;;;;;21.87;41.17;100212.03;5094141;28;20069;-76
2022/05/23 05:31:53;;;;;;;10.23;3.50;;;;;;;21.66;41.41;100206.50;5075764;28;20031;-76
2022/05/23 05:34:25;;;;;;;3.63;2.00;;;;;;;21.87;41.12;100207.25;5075868;28;20085;-76
2022/05/23 05:36:59;;;;;;;6.05;2.33;;;;;;;21.85;41.20;100206.06;5094061;28;20062;-76
2022/05/23 05:39:27;;;;;;;5.50;2.28;;;;;;;22.02;40.94;100210.78;5093974;28;20467;-77
2022/05/23 05:42:18;;;;;;;17.58;4.13;;;;;;;22.00;41.08;100215.97;5075612;28;20031;-76
2022/05/23 05:44:51;;;;;;;9.02;2.60;;;;;;;21.96;41.18;100208.81;5095790;28;20032;-77
2022/05/23 05:47:22;;;;;;;10.30;2.65;;;;;;;22.02;41.00;100205.22;5084546;28;20602;-77
2022/05/23 05:49:52;;;;;;;10.30;3.05;;;;;;;22.01;40.78;100205.63;5062942;28;20049;-77
2022/05/23 05:52:20;;;;;;;7.90;2.38;;;;;;;22.07;41.08;100206.78;5053120;28;20395;-76
2022/05/23 05:54:46;;;;;;;4.05;2.20;;;;;;;22.23;40.74;100203.56;5053479;28;20021;-77
2022/05/23 05:57:13;;;;;;;7.43;1.90;;;;;;;22.48;40.27;100203.44;5051621;28;20379;-76
2022/05/23 05:59:39;;;;;;;6.38;2.10;;;;;;;22.60;40.21;100209.31;5052029;28;20028;-77
2022/05/23 06:02:07;;;;;;;4.25;2.30;;;;;;;22.69;39.77;100208.88;5052968;28;20029;-76
2022/05/23 06:04:34;;;;;;;8.00;2.53;;;;;;;22.60;39.88;100203.75;5063163;28;20032;-78
2022/05/23 06:12:31;;;;;;;5.15;2.10;;;;;;;22.48;40.75;100209.78;5054641;28;20448;-77
2022/05/23 06:14:57;;;;;;;8.07;1.98;;;;;;;22.54;40.63;100208.16;5051454;28;20052;-77
2022/05/23 06:17:23;;;;;;;5.40;2.70;;;;;;;22.51;40.97;100208.16;5051625;28;20101;-77
2022/05/23 06:19:48;;;;;;;7.35;2.47;;;;;;;22.29;41.29;100218.63;5052810;28;20475;-77
2022/05/23 06:22:16;;;;;;;11.90;3.30;;;;;;;22.52;40.96;100210.56;5051155;28;20029;-77
2022/05/23 06:24:41;;;;;;;7.43;2.97;;;;;;;22.41;41.42;100215.38;5052941;28;20059;-77
2022/05/23 06:27:09;;;;;;;10.32;3.17;;;;;;;22.57;41.27;100212.91;5057705;28;20078;-79
2022/05/23 06:29:36;;;;;;;8.55;3.00;;;;;;;22.29;41.94;100210.28;5070393;28;20503;-78
2022/05/23 06:32:02;;;;;;;8.43;2.42;;;;;;;22.48;41.30;100218.13;5071728;28;20107;-78
2022/05/23 06:34:29;;;;;;;12.10;4.03;;;;;;;22.87;40.77;100217.13;5070414;28;20024;-78
2022/05/23 06:36:55;;;;;;;7.20;2.10;;;;;;;22.78;40.80;100214.75;5071498;28;20523;-78
2022/05/23 06:39:21;;;;;;;9.95;2.80;;;;;;;23.01;39.95;100217.00;5071920;28;20024;-78
2022/05/23 06:41:47;;;;;;;15.43;2.85;;;;;;;23.03;40.03;100220.16;5072622;28;20416;-77
2022/05/23 06:44:13;;;;;;;6.28;1.95;;;;;;;23.16;39.68;100212.91;5071796;28;20100;-79
2022/05/23 06:46:40;;;;;;;7.50;2.05;;;;;;;23.12;39.64;100222.47;5070814;28;20028;-77
2022/05/23 06:49:06;;;;;;;7.05;2.72;;;;;;;23.11;39.54;100221.69;5076727;28;20067;-78
2022/05/23 06:51:36;;;;;;;7.72;2.30;;;;;;;23.28;39.08;100221.97;5112615;28;20035;-78
2022/05/23 06:54:02;;;;;;;13.88;3.28;;;;;;;23.19;38.97;100212.06;5111007;28;20057;-77
2022/05/23 06:56:30;;;;;;;4.47;2.10;;;;;;;23.34;38.94;100201.59;5111132;28;20124;-77
2022/05/23 06:58:55;;;;;;;7.97;2.88;;;;;;;23.51;38.72;100203.41;5079517;28;20028;-77
2022/05/23 07:01:21;;;;;;;9.70;3.35;;;;;;;23.44;38.75;100205.50;5092638;28;20593;-77
2022/05/23 07:03:47;;;;;;;12.07;3.60;;;;;;;23.53;38.47;100208.56;5091059;28;20056;-77
2022/05/23 07:14:26;;;;;;;6.15;2.28;;;;;;;23.56;38.48;100201.38;5090784;28;20072;-77
2022/05/23 07:16:54;;;;;;;6.00;2.45;;;;;;;23.60;37.96;100204.94;5090590;28;20069;-78
2022/05/23 07:19:19;;;;;;;4.28;2.10;;;;;;;23.68;37.78;100201.66;5091898;28;20052;-77
2022/05/23 07:21:45;;;;;;;14.65;2.72;;;;;;;23.84;37.08;100206.66;5072473;28;20059;-77
2022/05/23 07:24:11;;;;;;;6.85;2.67;;;;;;;23.85;37.05;100215.84;5092829;28;20070;-76
2022/05/23 07:26:37;;;;;;;9.02;1.80;;;;;;;23.78;36.85;100203.53;5105583;28;20028;-77
2022/05/23 07:29:04;;;;;;;6.20;1.67;;;;;;;23.76;37.13;100211.53;5110138;28;20023;-76
2022/05/23 07:31:30;;;;;;;7.38;2.33;;;;;;;23.79;36.79;100218.28;5112716;28;20031;-77
2022/05/23 07:33:55;;;;;;;6.90;1.70;;;;;;;23.61;36.95;100215.69;5112561;28;20023;-77
2022/05/23 07:36:21;;;;;;;6.80;2.65;;;;;;;23.46;37.23;100215.00;5090828;28;20020;-76
2022/05/23 07:38:47;;;;;;;4.70;1.73;;;;;;;23.56;36.77;100221.69;5092300;28;20716;-77
2022/05/23 07:41:14;;;;;;;5.43;2.05;;;;;;;23.60;36.66;100216.91;5092118;28;20031;-76
2022/05/23 07:43:41;;;;;;;4.43;2.33;;;;;;;23.81;36.55;100207.53;5092326;28;20047;-77
2022/05/23 07:46:13;;;;;;;9.00;2.55;;;;;;;24.15;36.11;100207.50;5094013;28;20027;-78
2022/05/23 07:48:45;;;;;;;8.13;2.78;;;;;;;24.24;36.00;100199.38;5094241;28;20031;-77
2022/05/23 07:51:12;;;;;;;12.20;3.88;;;;;;;24.45;35.88;100197.56;5112499;28;20059;-78
2022/05/23 08:01:50;;;;;;;4.15;1.60;;;;;;;24.57;35.29;100205.38;5112418;28;20088;-78
2022/05/23 08:04:16;;;;;;;7.68;1.40;;;;;;;24.56;34.84;100212.13;5110698;28;20050;-78
2022/05/23 08:06:43;;;;;;;11.13;2.70;;;;;;;24.63;34.64;100212.81;5112355;28;20031;-77
2022/05/23 08:09:09;;;;;;;6.93;2.75;;;;;;;24.61;34.71;100206.09;5107734;28;20066;-77
2022/05/23 08:11:40;;;;;;;7.00;1.88;;;;;;;24.51;34.67;100199.47;5091921;28;20093;-78
2022/05/23 08:14:06;;;;;;;7.43;1.50;;;;;;;24.65;34.17;100204.03;5073930;28;20024;-77
2022/05/23 08:16:33;;;;;;;5.28;1.48;;;;;;;24.41;34.71;100199.59;5093016;28;20024;-78
2022/05/23 08:18:58;;;;;;;3.90;1.50;;;;;;;24.42;34.25;100204.78;5096615;28;20016;-77
2022/05/23 08:21:25;;;;;;;8.23;1.92;;;;;;;24.67;34.00;100201.63;5095356;28;20122;-78
2022/05/23 08:23:51;;;;;;;5.53;1.42;;;;;;;24.73;34.04;100199.94;5077375;28;20028;-78
2022/05/23 08:26:17;;;;;;;12.98;2.38;;;;;;;24.74;33.81;100203.50;5095323;28;20035;-77
2022/05/23 08:28:42;;;;;;;9.05;1.73;;;;;;;24.43;34.65;100199.97;5095350;28;20066;-78
2022/05/23 08:31:08;;;;;;;4.40;2.25;;;;;;;24.51;34.58;100201.47;5101653;28;20106;-77
2022/05/23 08:33:34;;;;;;;6.97;1.90;;;;;;;24.86;34.06;100202.91;5115644;28;20118;-77
2022/05/23 08:36:00;;;;;;;5.10;1.50;;;;;;;25.09;34.00;100205.78;5115572;28;20430;-78
2022/05/23 08:38:26;;;;;;;3.20;1.20;;;;;;;25.05;33.87;100188.25;5103610;28;20523;-77
2022/05/23 08:41:13;;;;;;;9.70;1.70;;;;;;;25.05;33.42;100193.06;5076752;28;20036;-77
2022/05/23 08:44:06;;;;;;;8.20;2.25;;;;;;;25.42;33.62;100187.22;5076843;28;20064;-77
2022/05/23 08:46:54;;;;;;;10.40;1.65;;;;;;;25.62;32.96;100190.03;5095027;28;20444;-76
2022/05/23 08:49:26;;;;;;;5.28;1.98;;;;;;;25.60;33.63;100178.47;5054825;28;20513;-76
2022/05/23 08:52:07;;;;;;;7.20;1.85;;;;;;;25.59;33.48;100178.91;5094849;28;20024;-76
2022/05/23 08:54:42;;;;;;;8.07;1.80;;;;;;;26.12;32.67;100177.84;5094931;28;20031;-75
2022/05/23 08:57:18;;;;;;;6.15;2.42;;;;;;;25.76;31.60;100175.00;5095094;28;20410;-77
2022/05/23 08:59:50;;;;;;;7.72;1.88;;;;;;;26.17;31.58;100165.38;5076319;28;20024;-75
2022/05/23 09:02:27;;;;;;;6.38;1.92;;;;;;;26.16;31.76;100166.59;5094584;28;20036;-76
2022/05/23 09:05:00;;;;;;;7.95;2.47;;;;;;;26.20;31.79;100164.47;5076262;28;20028;-78
2022/05/23 09:07:39;;;;;;;8.85;2.20;;;;;;;25.79;31.45;100165.75;5095757;28;20475;-78
2022/05/23 09:10:11;;;;;;;11.68;1.65;;;;;;;25.79;31.30;100162.94;5094618;28;20028;-77
2022/05/23 09:12:37;;;;;;;5.25;1.17;;;;;;;25.86;31.62;100162.03;5075877;28;20497;-77
2022/05/23 09:15:02;;;;;;;5.68;1.90;;;;;;;25.68;31.65;100157.53;5076316;28;20024;-78
2022/05/23 09:17:32;;;;;;;1.92;0.70;;;;;;;25.75;31.86;100155.84;5091216;28;20105;-80
2022/05/23 09:20:14;;;;;;;5.47;2.10;;;;;;;25.81;30.94;100143.72;5114651;28;20043;-79
2022/05/23 09:22:51;;;;;;;4.63;1.00;;;;;;;26.32;30.98;100147.03;5114538;28;20084;-78
2022/05/23 09:25:25;;;;;;;3.22;1.15;;;;;;;26.63;30.49;100141.91;5094622;28;20065;-78
2022/05/23 09:28:06;;;;;;;2.95;0.95;;;;;;;26.90;30.16;100135.25;5114190;28;20024;-77
2022/05/23 09:30:35;;;;;;;3.80;1.13;;;;;;;26.77;30.29;100135.19;5096318;28;20024;-79
2022/05/23 09:33:01;;;;;;;6.75;1.25;;;;;;;26.66;30.34;100145.84;5096334;28;20023;-78
2022/05/23 09:35:29;;;;;;;18.25;3.28;;;;;;;26.43;30.59;100144.78;5114750;28;20176;-77
2022/05/23 09:38:17;;;;;;;3.67;1.20;;;;;;;26.00;30.96;100148.53;5108263;28;20035;-78
2022/05/23 09:40:44;;;;;;;3.88;1.40;;;;;;;25.84;31.37;100148.44;5093901;28;20020;-77
2022/05/23 09:49:16;;;;;;;4.28;1.55;;;;;;;27.24;29.09;100146.00;5093913;28;20135;-77
2022/05/23 09:51:57;;;;;;;4.43;1.63;;;;;;;26.89;29.71;100151.28;5075471;28;20064;-76
2022/05/23 09:54:32;;;;;;;2.17;0.90;;;;;;;26.73;30.49;100154.88;5075497;28;20521;-76
2022/05/23 09:57:02;;;;;;;4.85;1.75;;;;;;;26.71;31.22;100156.53;5093638;28;20020;-76
2022/05/23 09:59:30;;;;;;;;;;;;;;;26.23;32.41;100149.63;5075624;28;20185;-76
2022/05/23 10:02:02;;;;;;;4.03;1.02;;;;;;;26.16;32.09;100152.59;5093340;28;19919;-78
2022/05/23 10:04:31;;;;;;;6.95;2.20;;;;;;;26.31;31.82;100153.06;5093584;28;20425;-78
2022/05/23 10:06:57;;;;;;;6.63;1.40;;;;;;;26.44;31.44;100146.34;5075822;28;20016;-78
2022/05/23 10:09:32;;;;;;;3.88;1.15;;;;;;;26.23;31.19;100142.03;5075647;28;20059;-78
2022/05/23 10:12:01;;;;;;;6.53;1.42;;;;;;;26.33;31.30;100140.19;5075250;28;20028;-78
2022/05/23 10:14:44;;;;;;;5.63;1.17;;;;;;;26.02;31.47;100136.09;5074796;28;20483;-78
2022/05/23 10:17:10;;;;;;;7.57;2.20;;;;;;;26.49;31.39;100134.63;5093242;28;20020;-76
2022/05/23 10:19:38;;;;;;;13.45;1.73;;;;;;;26.68;30.84;100126.59;5103001;28;20043;-76
2022/05/23 10:22:18;;;;;;;3.15;0.93;;;;;;;26.82;29.53;100123.41;5095142;28;20032;-77
2022/05/23 10:24:54;;;;;;;3.92;0.55;;;;;;;26.50;30.25;100118.63;5113846;28;20030;-77
2022/05/23 10:27:48;;;;;;;5.85;1.52;;;;;;;26.92;29.61;100122.38;5113683;28;20031;-76
2022/05/23 10:30:17;;;;;;;4.90;0.80;;;;;;;26.74;29.47;100119.22;5101090;28;20106;-77
2022/05/23 10:32:48;;;;;;;6.35;1.00;;;;;;;26.28;30.32;100112.69;5095086;28;20089;-77
2022/05/23 10:35:28;;;;;;;12.98;1.88;;;;;;;26.46;30.27;100113.09;5113440;28;20039;-76
2022/05/23 10:42:07;;;;;;;10.38;1.58;;;;;;;26.63;30.34;100127.13;5104502;28;20504;-77
2022/05/23 10:43:53;;;;;;;2.42;1.15;;;;;;;26.33;29.67;100117.78;5093261;28;20062;-77
2022/05/23 10:46:18;;;;;;;4.65;1.02;;;;;;;26.18;29.99;100116.53;5063568;28;20028;-78
2022/05/23 10:49:02;;;;;;;5.95;1.33;;;;;;;26.51;29.85;100111.78;5092635;28;20047;-78
2022/05/23 10:51:32;;;;;;;2.92;0.95;;;;;;;26.97;29.21;100110.63;5074640;28;20044;-77
2022/05/23 10:54:49;;;;;;;1.33;0.80;;;;;;;27.08;29.32;100104.78;5074635;28;20016;-78
2022/05/23 10:57:27;;;;;;;3.17;1.10;;;;;;;26.89;29.42;100109.22;5058473;28;20410;-77
2022/05/23 11:00:15;;;;;;;6.45;1.23;;;;;;;26.91;29.05;100106.78;5074629;28;20024;-77
2022/05/23 11:03:08;;;;;;;8.27;1.85;;;;;;;26.72;29.69;100102.06;5092137;28;20032;-77
2022/05/23 11:05:58;;;;;;;1.98;1.15;;;;;;;26.92;29.29;100099.94;5074561;28;20028;-78
2022/05/23 11:08:47;;;;;;;9.23;2.15;;;;;;;27.25;29.03;100100.69;5075432;28;20585;-78
2022/05/23 11:11:51;;;;;;;7.97;1.60;;;;;;;27.05;29.05;100091.63;5073943;28;20119;-78
2022/05/23 11:14:28;;;;;;;3.10;0.63;;;;;;;27.19;28.73;100091.25;5099429;28;20047;-77
2022/05/23 11:17:26;;;;;;;5.38;0.90;;;;;;;27.29;28.62;100092.19;5112627;28;20027;-79
2022/05/23 11:20:04;;;;;;;2.55;0.90;;;;;;;27.09;28.95;100084.69;5076858;28;20032;-76
2022/05/23 11:22:56;;;;;;;3.08;1.30;;;;;;;27.38;29.29;100095.13;5094390;28;20027;-77
2022/05/23 11:25:33;;;;;;;2.60;0.80;;;;;;;27.40;28.89;100098.28;5094567;28;20024;-76
2022/05/23 11:34:23;;;;;;;3.42;1.05;;;;;;;27.23;28.00;100094.75;5112661;28;20042;-76
2022/05/23 11:37:01;;;;;;;;;;;;;;;27.01;29.41;100091.69;5112264;28;20040;-77
2022/05/23 11:39:53;;;;;;;10.88;1.25;;;;;;;27.24;28.30;100089.91;5112205;28;19915;-76
2022/05/23 11:42:26;;;;;;;7.75;1.17;;;;;;;27.37;28.08;100085.16;5112579;28;20110;-77
2022/05/23 11:45:56;;;;;;;7.65;1.25;;;;;;;27.15;28.08;100087.75;5094370;28;20038;-77
2022/05/23 11:47:48;;;;;;;2.08;0.50;;;;;;;27.51;28.24;100086.78;5112311;28;20063;-76
2022/05/23 11:50:47;;;;;;;1.80;0.63;;;;;;;27.46;27.47;100088.09;5078396;28;20103;-76
2022/05/23 11:53:29;;;;;;;2.22;0.65;;;;;;;27.74;27.30;100086.50;5075871;28;20037;-76
2022/05/23 11:55:55;;;;;;;2.20;0.50;;;;;;;27.97;27.29;100079.81;5074485;28;20187;-77
2022/05/23 11:58:23;;;;;;;2.05;0.57;;;;;;;28.23;27.09;100071.38;5075587;28;20473;-76
2022/05/23 12:01:11;;;;;;;5.95;1.10;;;;;;;28.23;26.21;100091.81;5075730;28;20471;-76
2022/05/23 12:03:52;;;;;;;4.35;0.65;;;;;;;28.49;26.13;100075.78;5061772;28;20646;-76
2022/05/23 12:06:29;;;;;;;3.40;0.82;;;;;;;28.40;25.98;100070.03;5075320;28;20035;-76
2022/05/23 12:08:57;;;;;;;3.40;0.70;;;;;;;28.26;26.13;100062.81;5055359;28;20053;-77
2022/05/23 12:11:41;;;;;;;11.80;1.20;;;;;;;28.44;26.08;100062.28;5055324;28;20071;-78
2022/05/23 12:14:10;;;;;;;6.47;0.63;;;;;;;28.44;25.25;100065.09;5055474;28;20035;-78
2022/05/23 12:16:49;;;;;;;6.30;0.90;;;;;;;28.67;24.91;100063.94;5055376;28;20021;-78
2022/05/23 12:19:26;;;;;;;0.77;0.30;;;;;;;28.63;25.26;100054.81;5054020;28;20051;-78
2022/05/23 12:21:53;;;;;;;1.17;0.50;;;;;;;28.74;25.37;100053.22;5055275;28;20476;-77
2022/05/23 12:24:31;;;;;;;3.30;0.38;;;;;;;29.13;24.49;100062.34;5053870;28;20021;-77
2022/05/23 12:27:01;;;;;;;3.42;0.30;;;;;;;28.99;24.74;100051.59;5055183;28;20045;-77
2022/05/23 12:29:31;;;;;;;1.38;0.60;;;;;;;28.92;25.13;100051.84;5054993;28;20087;-78
2022/05/23 12:32:26;;;;;;;5.97;1.27;;;;;;;28.96;25.48;100041.28;5055303;28;20435;-78